KYKN/YKN METAR and TAF weather

Enter ICAO airport designator
Station Type Date Time Source
KYKN METAR 2021/09/27 06:56 UTC NOAA

KYKN 270656Z AUTO 30006KT 10SM CLR 16/10 A2975 RMK AO2 SLP076 T01560100


Station Type Date Time Source
KYKN Decoded METAR 2021/09/27 06:56 UTC NOAA

Yankton, Chan Gurney Municipal Airport, SD, United States (KYKN) 42-55N 097-23W
Sep 27, 2021 - 02:56 AM EDT / 2021.09.27 0656 UTC
Wind: from the WNW (300 degrees) at 7 MPH (6 KT):0
Visibility: 10 mile(s):0
Sky conditions: clear
Temperature: 60.1 F (15.6 C)
Dew Point: 50.0 F (10.0 C)
Relative Humidity: 69%
Pressure (altimeter): 29.75 in. Hg (1007 hPa)
ob: KYKN 270656Z AUTO 30006KT 10SM CLR 16/10 A2975 RMK AO2 SLP076 T01560100
cycle: 7

Station Type Date Time Source
KYKN TAF UTC NOAA

Error!

Example: see airport list